createdAt,value
2022-11-08T00:04:34.902Z,21.10
2022-11-08T00:09:57.558Z,24.70
2022-11-08T00:15:01.799Z,23.50
2022-11-08T00:20:06.340Z,18.10
2022-11-08T00:25:11.325Z,22.80
2022-11-08T00:30:14.475Z,14.30
2022-11-08T00:35:17.526Z,23.40
2022-11-08T00:40:20.486Z,22.20
2022-11-08T00:45:23.590Z,20.50
2022-11-08T00:50:26.694Z,23.30
2022-11-08T00:55:29.706Z,18.70
2022-11-08T01:00:32.810Z,18.20
2022-11-08T01:05:38.475Z,16.70
2022-11-08T01:10:43.995Z,19.20
2022-11-08T01:15:47.726Z,23.50
2022-11-08T01:20:51.313Z,19.50
2022-11-08T01:25:54.383Z,20.00
2022-11-08T01:30:57.495Z,17.90
2022-11-08T01:36:00.799Z,16.70
2022-11-08T01:41:05.539Z,20.80
2022-11-08T01:46:33.854Z,20.50
2022-11-08T01:51:54.672Z,23.60
2022-11-08T01:57:01.693Z,18.60
2022-11-08T02:02:05.869Z,18.70
2022-11-08T02:07:12.294Z,18.30
2022-11-08T02:12:20.565Z,20.40
2022-11-08T02:17:23.601Z,23.60
2022-11-08T02:22:39.351Z,21.90
2022-11-08T02:27:42.615Z,27.10
2022-11-08T02:32:47.386Z,15.00
2022-11-08T02:37:51.182Z,16.20
2022-11-08T02:42:54.197Z,18.30
2022-11-08T02:47:57.397Z,18.40
2022-11-08T02:53:01.013Z,21.90
2022-11-08T02:58:04.907Z,16.60
2022-11-08T03:03:08.248Z,19.40
2022-11-08T03:08:11.360Z,18.30
2022-11-08T03:13:14.466Z,17.70
2022-11-08T03:18:17.928Z,19.40
2022-11-08T03:23:21.318Z,17.80
2022-11-08T03:28:24.729Z,24.00
2022-11-08T03:33:28.225Z,24.10
2022-11-08T03:38:31.330Z,24.50
2022-11-08T03:43:34.428Z,22.10
2022-11-08T03:48:37.458Z,21.40
2022-11-08T03:53:40.548Z,19.20
2022-11-08T03:58:43.549Z,19.20
2022-11-08T04:03:46.546Z,21.20
2022-11-08T04:08:49.653Z,23.00
2022-11-08T04:14:11.500Z,23.40
2022-11-08T04:19:36.006Z,17.60
2022-11-08T04:24:39.135Z,18.90
2022-11-08T04:29:42.232Z,20.00
2022-11-08T04:34:45.329Z,22.30
2022-11-08T04:39:50.317Z,20.60
2022-11-08T04:44:53.637Z,25.00
2022-11-08T04:49:56.687Z,20.10
2022-11-08T04:54:59.715Z,17.40
2022-11-08T05:00:02.904Z,14.60
2022-11-08T05:05:07.501Z,23.20
2022-11-08T05:10:10.684Z,20.70
2022-11-08T05:15:13.754Z,16.90
2022-11-08T05:20:35.805Z,19.50
2022-11-08T05:25:40.428Z,19.20
2022-11-08T05:30:43.863Z,21.90
2022-11-08T05:35:46.971Z,21.40
2022-11-08T05:40:49.974Z,19.70
2022-11-08T05:45:53.089Z,21.10
2022-11-08T05:50:57.108Z,18.50
2022-11-08T05:56:03.140Z,16.20
2022-11-08T06:01:13.865Z,15.10
2022-11-08T06:06:20.697Z,23.70
2022-11-08T06:11:27.410Z,22.60
2022-11-08T06:16:30.343Z,19.80
2022-11-08T06:21:33.662Z,20.40
2022-11-08T06:26:36.915Z,24.30
2022-11-08T06:31:43.037Z,16.00
2022-11-08T06:36:46.666Z,24.60
2022-11-08T06:41:49.875Z,19.50
2022-11-08T06:46:56.157Z,16.10
2022-11-08T06:51:59.677Z,20.50
2022-11-08T06:57:03.085Z,19.40
2022-11-08T07:02:07.088Z,15.30
2022-11-08T07:07:10.320Z,20.20
2022-11-08T07:12:13.548Z,15.60
2022-11-08T07:17:16.842Z,18.40
2022-11-08T07:22:19.944Z,17.10
2022-11-08T07:27:23.709Z,15.60
2022-11-08T07:32:26.885Z,17.30
2022-11-08T07:37:30.427Z,18.50
2022-11-08T07:43:05.144Z,16.00
2022-11-08T07:48:11.864Z,16.70
2022-11-08T07:53:16.145Z,17.60
2022-11-08T07:58:19.578Z,15.80
2022-11-08T08:03:23.489Z,17.60
2022-11-08T08:08:27.135Z,15.80
2022-11-08T08:13:30.334Z,17.50
2022-11-08T08:18:33.575Z,14.90
2022-11-08T08:23:36.750Z,10.60
2022-11-08T08:28:39.862Z,16.00
2022-11-08T08:33:43.688Z,13.90
2022-11-08T08:38:46.786Z,16.00
2022-11-08T08:43:50.123Z,15.00
2022-11-08T08:48:54.021Z,14.70
2022-11-08T08:53:58.668Z,15.80
2022-11-08T09:04:24.845Z,14.60
2022-11-08T09:09:28.255Z,17.30
2022-11-08T09:14:31.483Z,18.70
2022-11-08T09:19:34.680Z,19.90
2022-11-08T09:24:38.596Z,14.80
2022-11-08T09:29:41.735Z,18.30
2022-11-08T09:34:45.525Z,15.70
2022-11-08T09:39:48.840Z,17.70
2022-11-08T09:45:13.045Z,15.90
2022-11-08T09:50:39.189Z,15.80
2022-11-08T09:56:06.457Z,18.20
2022-11-08T10:01:14.551Z,13.50
2022-11-08T10:06:44.028Z,14.70
2022-11-08T10:12:37.088Z,15.40
2022-11-08T10:18:11.725Z,12.60
2022-11-08T10:23:57.538Z,10.90
2022-11-08T10:29:20.104Z,16.70
2022-11-08T10:34:29.325Z,14.80
2022-11-08T10:39:45.052Z,17.90
2022-11-08T10:44:48.261Z,18.10
2022-11-08T10:49:52.490Z,14.10
2022-11-08T10:54:59.180Z,16.50
2022-11-08T11:00:23.689Z,13.50
2022-11-08T11:05:31.854Z,13.90
2022-11-08T11:10:47.788Z,12.50
2022-11-08T11:16:00.473Z,12.50
2022-11-08T11:21:15.239Z,16.40
2022-11-08T11:26:18.438Z,14.10
2022-11-08T11:31:21.547Z,12.20
2022-11-08T11:36:30.527Z,14.70
2022-11-08T11:41:49.462Z,14.30
2022-11-08T11:47:02.813Z,20.90
2022-11-08T11:52:17.627Z,14.00
2022-11-08T11:57:41.516Z,17.30
2022-11-08T12:03:15.917Z,12.10
2022-11-08T12:08:36.030Z,9.50
2022-11-08T12:14:09.361Z,11.90
2022-11-08T12:19:24.739Z,11.40
2022-11-08T12:24:39.213Z,8.00
2022-11-08T12:29:51.559Z,12.70
2022-11-08T12:35:43.424Z,12.10
2022-11-08T12:41:11.917Z,11.70
2022-11-08T12:46:20.533Z,17.70
2022-11-08T12:51:57.542Z,14.00
2022-11-08T12:57:09.226Z,13.20
2022-11-08T13:02:24.979Z,11.10
2022-11-08T13:07:56.093Z,9.20
2022-11-08T13:13:36.203Z,10.90
2022-11-08T13:18:49.725Z,15.00
2022-11-08T13:24:38.428Z,14.40
2022-11-08T13:29:38.891Z,14.10
2022-11-08T13:34:49.517Z,12.40
2022-11-08T13:40:27.254Z,14.30
2022-11-08T13:45:34.828Z,10.10
2022-11-08T13:51:19.150Z,8.80
2022-11-08T13:56:56.325Z,9.90
2022-11-08T14:01:59.772Z,12.40
2022-11-08T14:07:06.233Z,9.00
2022-11-08T14:12:20.903Z,13.50
2022-11-08T14:17:52.986Z,14.60
2022-11-08T14:23:00.554Z,10.70
2022-11-08T14:28:05.033Z,12.10
2022-11-08T14:33:21.741Z,13.20
2022-11-08T14:38:28.240Z,17.80
2022-11-08T14:43:42.870Z,11.90
2022-11-08T14:48:54.383Z,11.10
2022-11-08T14:53:57.794Z,35.30
2022-11-08T14:59:07.001Z,13.30
2022-11-08T15:04:21.188Z,14.60
2022-11-08T15:09:33.470Z,15.30
2022-11-08T15:14:55.731Z,12.50
2022-11-08T15:20:21.768Z,13.80
2022-11-08T15:25:36.023Z,15.80
2022-11-08T15:30:43.335Z,17.00
2022-11-08T15:35:47.783Z,18.00
2022-11-08T15:40:54.783Z,27.20
2022-11-08T15:46:03.075Z,28.40
2022-11-08T15:51:06.421Z,26.90
2022-11-08T15:56:12.593Z,29.20
2022-11-08T16:01:23.289Z,26.40
2022-11-08T16:06:26.618Z,25.80
2022-11-08T16:11:32.971Z,16.00
2022-11-08T16:16:37.019Z,18.40
2022-11-08T16:21:40.230Z,26.40
2022-11-08T16:26:45.811Z,22.70
2022-11-08T16:31:51.152Z,24.10
2022-11-08T16:36:54.962Z,26.30
2022-11-08T16:41:58.526Z,31.00
2022-11-08T16:47:01.798Z,28.20
2022-11-08T16:52:05.118Z,31.50
2022-11-08T16:57:28.949Z,38.10
2022-11-08T17:02:35.743Z,45.40
2022-11-08T17:07:39.138Z,41.90
2022-11-08T17:12:42.203Z,55.30
2022-11-08T17:17:46.408Z,68.00
2022-11-08T17:22:49.860Z,98.70
2022-11-08T17:27:53.266Z,133.40
2022-11-08T17:32:56.571Z,124.80
2022-11-08T17:38:00.030Z,111.30
2022-11-08T17:43:03.342Z,102.60
2022-11-08T17:48:07.022Z,93.90
2022-11-08T17:53:10.329Z,55.40
2022-11-08T17:58:13.536Z,52.30
2022-11-08T18:03:17.136Z,73.50
2022-11-08T18:08:26.514Z,118.00
2022-11-08T18:13:31.453Z,151.40
2022-11-08T18:18:34.868Z,196.30
2022-11-08T18:23:41.969Z,96.60
2022-11-08T18:28:45.487Z,91.80
2022-11-08T18:33:49.841Z,103.40
2022-11-08T18:38:53.749Z,95.60
2022-11-08T18:44:00.027Z,80.50
2022-11-08T18:49:05.387Z,83.10
2022-11-08T18:54:08.597Z,79.30
2022-11-08T18:59:11.742Z,80.00
2022-11-08T19:04:15.023Z,52.80
2022-11-08T19:09:19.460Z,47.40
2022-11-08T19:14:23.072Z,49.70
2022-11-08T19:19:26.277Z,29.60
2022-11-08T19:24:29.385Z,21.90
2022-11-08T19:29:32.596Z,15.50
2022-11-08T19:34:37.034Z,14.10
2022-11-08T19:39:40.236Z,15.40
2022-11-08T19:44:43.340Z,15.50
2022-11-08T19:49:46.449Z,14.30
2022-11-08T19:54:50.482Z,13.90
2022-11-08T19:59:53.582Z,11.90
2022-11-08T20:04:56.791Z,13.30
2022-11-08T20:10:00.334Z,12.20
2022-11-08T20:15:04.342Z,16.70
2022-11-08T20:20:08.887Z,16.70
2022-11-08T20:25:12.091Z,12.70
2022-11-08T20:30:15.503Z,14.20
2022-11-08T20:35:22.967Z,10.30
2022-11-08T20:40:26.824Z,12.10
2022-11-08T20:45:30.443Z,19.10
2022-11-08T20:50:36.527Z,14.50
2022-11-08T20:55:39.744Z,15.60
2022-11-08T21:01:02.601Z,15.80
2022-11-08T21:06:09.242Z,13.90
2022-11-08T21:11:15.807Z,15.70
2022-11-08T21:16:29.978Z,11.50
2022-11-08T21:21:34.689Z,15.70
2022-11-08T21:26:37.790Z,13.40
2022-11-08T21:31:40.999Z,10.40
2022-11-08T21:36:44.002Z,17.80
2022-11-08T21:41:47.107Z,11.90
2022-11-08T21:46:50.520Z,13.20
2022-11-08T21:51:53.727Z,15.80
2022-11-08T21:56:56.851Z,12.60
2022-11-08T22:02:00.454Z,11.10
2022-11-08T22:07:03.781Z,12.30
2022-11-08T22:12:07.287Z,13.80
2022-11-08T22:17:10.498Z,13.10
2022-11-08T22:22:14.121Z,14.10
2022-11-08T22:27:17.622Z,10.60
2022-11-08T22:32:20.631Z,14.20
2022-11-08T22:37:23.658Z,10.40
2022-11-08T22:42:26.745Z,12.50
2022-11-08T22:47:29.757Z,12.30
2022-11-08T22:52:32.751Z,10.60
2022-11-08T22:57:35.852Z,12.00
2022-11-08T23:02:38.956Z,13.10
2022-11-08T23:07:42.063Z,10.20
2022-11-08T23:13:03.707Z,11.40
2022-11-08T23:18:06.817Z,14.50
2022-11-08T23:23:29.380Z,9.40
2022-11-08T23:28:51.215Z,19.10
2022-11-08T23:33:54.324Z,16.30
2022-11-08T23:38:58.967Z,15.20
2022-11-08T23:44:20.811Z,14.70
2022-11-08T23:49:24.122Z,14.80
2022-11-08T23:54:27.227Z,16.20
2022-11-08T23:59:30.332Z,13.80
